Time;durP1;ratioP1;P1;durP2;ratioP2;P2;SDS_P1;SDS_P2;PMS_P1;PMS_P2;Temp;Humidity;BMP_temperature;BMP_pressure;BME280_temperature;BME280_humidity;BME280_pressure;Samples;Min_cycle;Max_cycle;Signal;HPM_P1;HPM_P2
2022/11/12 00:01:27;;;;;;;;;;;;;;;-144.99;100.00;52444.03;5056149;28;20069;-67
2022/11/12 00:03:56;;;;;;;;;;;;;;;-144.99;100.00;52452.16;5064208;28;19947;-66
2022/11/12 00:06:22;;;;;;;;;;;;;;;-144.99;100.00;52444.03;5064985;28;19932;-68
2022/11/12 00:08:49;;;;;;;;;;;;;;;-144.99;100.00;52488.84;5062623;28;19940;-66
2022/11/12 00:11:15;;;;;;;;;;;;;;;-144.99;100.00;52482.75;5063024;28;20012;-65
2022/11/12 00:13:42;;;;;;;;;;;;;;;-144.99;100.00;52439.94;5063112;28;20036;-66
2022/11/12 00:16:10;;;;;;;;;;;;;;;-144.99;100.00;52456.25;5063543;28;20007;-66
2022/11/12 00:18:36;;;;;;;;;;;;;;;-144.99;100.00;52456.25;5052154;28;20065;-66
2022/11/12 00:21:03;;;;;;;;;;;;;;;-144.99;100.00;52486.81;5063601;28;19970;-65
2022/11/12 00:23:29;;;;;;;;;;;;;;;-144.99;100.00;52448.09;5065661;28;20013;-64
2022/11/12 00:25:59;;;;;;;;;;;;;;;-144.99;100.00;52448.09;5053583;28;19979;-62
2022/11/12 00:28:26;;;;;;;;;;;;;;;-144.99;100.00;52476.63;5057156;28;20161;-64
2022/11/12 00:30:52;;;;;;;;;;;;;;;-144.99;100.00;52484.78;5056928;28;19972;-63
2022/11/12 00:33:20;;;;;;;;;;;;;;;-144.99;100.00;52456.25;5065609;28;20005;-65
2022/11/12 00:35:47;;;;;;;;;;;;;;;-144.99;100.00;52472.56;5067553;28;20058;-64
2022/11/12 00:38:14;;;;;;;;;;;;;;;-144.99;100.00;52452.16;5064590;28;19951;-65
2022/11/12 00:40:41;;;;;;;;;;;;;;;-144.99;100.00;52444.03;5062210;28;20310;-64
2022/11/12 00:43:07;;;;;;;;;;;;;;;-144.99;100.00;52474.59;5066883;28;19971;-64
2022/11/12 00:45:34;;;;;;;;;;;;;;;-144.99;100.00;52468.47;5067064;28;20019;-64
2022/11/12 00:48:00;;;;;;;;;;;;;;;-144.99;100.00;52476.63;5068133;28;19928;-65
2022/11/12 00:50:28;;;;;;;;;;;;;;;-144.99;100.00;52439.94;5064689;28;20061;-65
2022/11/12 00:52:54;;;;;;;;;;;;;;;-144.99;100.00;52468.47;5062314;28;20425;-64
2022/11/12 00:55:21;;;;;;;;;;;;;;;-144.99;100.00;52452.16;5056772;28;19963;-65
2022/11/12 00:57:47;;;;;;;;;;;;;;;-144.99;100.00;52492.94;4710066;28;9999944;-65
2022/11/12 01:00:15;;;;;;;;;;;;;;;-144.99;100.00;52460.31;5063594;28;19980;-65
2022/11/12 01:02:42;;;;;;;;;;;;;;;-144.99;100.00;52488.84;5041827;28;19948;-65
2022/11/12 01:05:09;;;;;;;;;;;;;;;-144.99;100.00;52468.47;5067227;28;20011;-64
2022/11/12 01:07:37;;;;;;;;;;;;;;;-144.99;100.00;52456.25;5067898;28;19978;-65
2022/11/12 01:10:03;;;;;;;;;;;;;;;-144.99;100.00;52472.56;5069404;28;19925;-70
2022/11/12 01:12:30;;;;;;;;;;;;;;;-144.99;100.00;52448.09;5063763;28;20461;-70
2022/11/12 01:14:57;;;;;;;;;;;;;;;-144.99;100.00;52450.13;5070674;28;19955;-66
2022/11/12 01:17:23;;;;;;;;;;;;;;;-144.99;100.00;52439.94;5069742;28;19943;-65
2022/11/12 01:19:50;;;;;;;;;;;;;;;-144.99;100.00;52456.25;5068350;28;19992;-67
2022/11/12 01:22:16;;;;;;;;;;;;;;;-144.99;100.00;52486.81;5066793;28;19997;-65
2022/11/12 01:24:44;;;;;;;;;;;;;;;-144.99;100.00;52448.09;5064924;28;19940;-65
2022/11/12 01:27:11;;;;;;;;;;;;;;;-144.99;100.00;52464.41;5061122;28;20385;-65
2022/11/12 01:29:37;;;;;;;;;;;;;;;-144.99;100.00;52460.31;5066615;28;19969;-66
2022/11/12 01:32:04;;;;;;;;;;;;;;;-144.99;100.00;52456.25;5067645;28;20066;-65
2022/11/12 01:34:30;;;;;;;;;;;;;;;-144.99;100.00;52480.72;5065138;28;19947;-65
2022/11/12 01:36:57;;;;;;;;;;;;;;;-144.99;100.00;52517.41;5068653;28;20045;-65
2022/11/12 01:39:24;;;;;;;;;;;;;;;-144.99;100.00;52474.59;5068667;28;20389;-64
2022/11/12 01:41:52;;;;;;;;;;;;;;;-144.99;99.78;52419.56;5067026;28;20012;-65
2022/11/12 01:44:20;;;;;;;;;;;;;;;-144.99;99.60;52458.28;5059318;28;19993;-67
2022/11/12 01:46:51;;;;;;;;;;;;;;;-144.99;99.85;52439.94;5060515;28;19942;-67
2022/11/12 01:49:21;;;;;;;;;;;;;;;-144.99;99.30;52452.16;5067136;28;20380;-66
2022/11/12 01:51:49;;;;;;;;;;;;;;;-144.99;99.35;52484.78;5066863;28;19957;-66
2022/11/12 01:54:18;;;;;;;;;;;;;;;-144.99;98.97;52480.72;5060926;28;20482;-66
2022/11/12 01:56:44;;;;;;;;;;;;;;;-144.99;98.58;52468.47;5061712;28;19990;-66
2022/11/12 01:59:16;;;;;;;;;;;;;;;-144.99;98.87;52482.75;5068464;28;19961;-67
2022/11/12 02:01:42;;;;;;;;;;;;;;;-144.99;98.59;52494.97;5067297;28;19955;-67
2022/11/12 02:04:09;;;;;;;;;;;;;;;-144.99;98.46;52488.84;5066303;28;19929;-67
2022/11/12 02:06:36;;;;;;;;;;;;;;;-144.99;98.44;52470.50;5069201;28;19990;-67
2022/11/12 02:09:03;;;;;;;;;;;;;;;-144.99;98.70;52458.28;5068537;28;19947;-66
2022/11/12 02:11:29;;;;;;;;;;;;;;;-144.99;99.17;52435.88;5067163;28;20024;-66
2022/11/12 02:13:58;;;;;;;;;;;;;;;-144.99;99.50;52484.78;5071059;28;20076;-65
2022/11/12 02:16:26;;;;;;;;;;;;;;;-144.99;100.00;52444.03;5068279;28;19929;-66
2022/11/12 02:18:53;;;;;;;;;;;;;;;-144.99;100.00;52476.63;5070210;28;20021;-68
2022/11/12 02:21:21;;;;;;;;;;;;;;;-144.99;100.00;52444.03;5072087;28;20012;-67
2022/11/12 02:23:57;;;;;;;;;;;;;;;-144.99;100.00;52490.91;5067968;28;20070;-66
2022/11/12 02:26:23;;;;;;;;;;;;;;;-144.99;100.00;52468.47;5062142;28;19946;-67
2022/11/12 02:28:50;;;;;;;;;;;;;;;-144.99;100.00;52513.31;5065622;28;19935;-67
2022/11/12 02:31:16;;;;;;;;;;;;;;;-144.99;100.00;52505.16;5066666;28;19963;-69
2022/11/12 02:33:43;;;;;;;;;;;;;;;-144.99;100.00;52484.78;5066738;28;20376;-68
2022/11/12 02:36:09;;;;;;;;;;;;;;;-144.99;100.00;52456.25;5068472;28;19953;-68
2022/11/12 02:38:37;;;;;;;;;;;;;;;-144.99;100.00;52474.59;5069907;28;20054;-68
2022/11/12 02:41:04;;;;;;;;;;;;;;;-144.99;100.00;52480.72;5069789;28;19956;-69
2022/11/12 02:43:32;;;;;;;;;;;;;;;-144.99;100.00;52484.78;5066823;28;20475;-69
2022/11/12 02:45:59;;;;;;;;;;;;;;;-144.99;100.00;52497.00;5064562;28;19966;-69
2022/11/12 02:48:25;;;;;;;;;;;;;;;-144.99;100.00;52460.31;5068727;28;20041;-69
2022/11/12 02:50:52;;;;;;;;;;;;;;;-144.99;100.00;52480.72;5068021;28;19952;-69
2022/11/12 02:53:18;;;;;;;;;;;;;;;-144.99;100.00;52478.66;5064967;28;19974;-67
2022/11/12 02:55:46;;;;;;;;;;;;;;;-144.99;100.00;52480.72;5049853;28;20636;-66
2022/11/12 02:58:12;;;;;;;;;;;;;;;-144.99;100.00;52480.72;5069681;28;19944;-66
2022/11/12 03:00:39;;;;;;;;;;;;;;;-144.99;100.00;52450.13;5067267;28;20393;-66
2022/11/12 03:03:05;;;;;;;;;;;;;;;-144.99;100.00;52462.34;5066385;28;20213;-66
2022/11/12 03:05:33;;;;;;;;;;;;;;;-144.99;100.00;52464.41;5066123;28;19948;-65
2022/11/12 03:08:02;;;;;;;;;;;;;;;-144.99;100.00;52476.63;5067456;28;20492;-66
2022/11/12 03:10:28;;;;;;;;;;;;;;;-144.99;100.00;52505.16;5067711;28;20019;-66
2022/11/12 03:12:58;;;;;;;;;;;;;;;-144.99;100.00;52460.31;5065651;28;20401;-66
2022/11/12 03:15:24;;;;;;;;;;;;;;;-144.99;100.00;52490.91;5061865;28;19963;-66
2022/11/12 03:17:51;;;;;;;;;;;;;;;-144.99;100.00;52509.25;5067539;28;20315;-67
2022/11/12 03:20:18;;;;;;;;;;;;;;;-144.99;100.00;52456.25;5067301;28;19967;-67
2022/11/12 03:22:54;;;;;;;;;;;;;;;-144.99;100.00;52505.16;5065832;28;19946;-67
2022/11/12 03:25:21;;;;;;;;;;;;;;;-144.99;100.00;52513.31;5063138;28;20072;-67
2022/11/12 03:27:47;;;;;;;;;;;;;;;-144.99;100.00;52541.84;5062395;28;19938;-61
2022/11/12 03:30:15;;;;;;;;;;;;;;;-144.99;100.00;52464.41;5063934;28;20018;-61
2022/11/12 03:32:42;;;;;;;;;;;;;;;-144.99;100.00;52476.63;5066603;28;19949;-62
2022/11/12 03:35:08;;;;;;;;;;;;;;;-144.99;100.00;52521.47;5066306;28;20446;-60
2022/11/12 03:37:35;;;;;;;;;;;;;;;-144.99;100.00;52507.19;5066918;28;19994;-59
2022/11/12 03:40:02;;;;;;;;;;;;;;;-144.99;100.00;52501.09;5067858;28;20028;-63
2022/11/12 03:42:28;;;;;;;;;;;;;;;-144.99;100.00;52519.44;5065180;28;19942;-63
2022/11/12 03:44:55;;;;;;;;;;;;;;;-144.99;100.00;52509.25;5067178;28;20343;-63
2022/11/12 03:47:23;;;;;;;;;;;;;;;-144.99;100.00;52482.75;5067422;28;20135;-64
2022/11/12 03:49:49;;;;;;;;;;;;;;;-144.99;100.00;52474.59;5067275;28;19989;-65
2022/11/12 03:52:16;;;;;;;;;;;;;;;-144.99;100.00;52497.00;5059852;28;20452;-68
2022/11/12 03:54:42;;;;;;;;;;;;;;;-144.99;100.00;52484.78;5055595;28;20030;-70
2022/11/12 03:57:09;;;;;;;;;;;;;;;-144.99;100.00;52492.94;5068574;28;19972;-69
2022/11/12 03:59:35;;;;;;;;;;;;;;;-144.99;100.00;52497.00;5060497;28;19961;-68
2022/11/12 04:02:02;;;;;;;;;;;;;;;-144.99;100.00;52505.16;5062225;28;20018;-69
2022/11/12 04:09:54;;;;;;;;;;;;;;;-144.99;100.00;52488.84;5071479;28;19953;-68
2022/11/12 04:15:05;;;;;;;;;;;;;;;-144.99;100.00;52476.63;5071139;28;19997;-67
2022/11/12 04:22:57;;;;;;;;;;;;;;;-144.99;100.00;52521.47;5069426;28;20040;-67
2022/11/12 04:28:07;;;;;;;;;;;;;;;-144.99;100.00;52513.31;5065884;28;19960;-66
2022/11/12 04:30:33;;;;;;;;;;;;;;;-144.99;100.00;52484.78;5067820;28;20460;-66
2022/11/12 04:33:00;;;;;;;;;;;;;;;-144.99;100.00;52484.78;5069926;28;19982;-67
2022/11/12 04:35:28;;;;;;;;;;;;;;;-144.99;100.00;52505.16;5062558;28;19954;-67
2022/11/12 04:37:54;;;;;;;;;;;;;;;-144.99;100.00;52492.94;5070511;28;20001;-66
2022/11/12 04:45:51;;;;;;;;;;;;;;;-144.99;100.00;52515.34;5066674;28;19969;-65
2022/11/12 04:48:18;;;;;;;;;;;;;;;-144.99;100.00;52472.56;5070921;28;19982;-65
2022/11/12 04:50:47;;;;;;;;;;;;;;;-144.99;100.00;52497.00;5066685;28;20013;-65
2022/11/12 04:53:14;;;;;;;;;;;;;;;-144.99;100.00;52501.09;5055062;28;19945;-65
2022/11/12 04:55:40;;;;;;;;;;;;;;;-144.99;100.00;52525.56;5056542;28;20342;-65
2022/11/12 04:58:07;;;;;;;;;;;;;;;-144.99;100.00;52480.72;5069781;28;19944;-64
2022/11/12 05:00:33;;;;;;;;;;;;;;;-144.99;100.00;52537.78;5066984;28;20011;-66
2022/11/12 05:03:00;;;;;;;;;;;;;;;-144.99;100.00;52488.84;5071069;28;19950;-66
2022/11/12 05:05:26;;;;;;;;;;;;;;;-144.99;100.00;52488.84;5088103;28;19951;-65
2022/11/12 05:07:54;;;;;;;;;;;;;;;-144.99;100.00;52497.00;5084355;28;19993;-65
2022/11/12 05:10:20;;;;;;;;;;;;;;;-144.99;100.00;52494.97;5084289;22;20057;-67
2022/11/12 05:12:47;;;;;;;;;;;;;;;-144.99;100.00;52497.00;5085532;28;20048;-67
2022/11/12 05:15:13;;;;;;;;;;;;;;;-144.99;100.00;52529.63;5076485;28;20444;-69
2022/11/12 05:17:42;;;;;;;;;;;;;;;-144.99;100.00;52509.25;5089462;28;20038;-67
2022/11/12 05:20:09;;;;;;;;;;;;;;;-144.99;100.00;52492.94;5087253;28;19968;-67
2022/11/12 05:22:35;;;;;;;;;;;;;;;-144.99;100.00;52501.09;5066896;28;20011;-67
2022/11/12 05:25:03;;;;;;;;;;;;;;;-144.99;100.00;52513.31;5062811;28;20033;-67
2022/11/12 05:27:30;;;;;;;;;;;;;;;-144.99;100.00;52505.16;5058515;28;20057;-67
2022/11/12 05:29:56;;;;;;;;;;;;;;;-144.99;100.00;52472.56;5065471;28;19997;-67
2022/11/12 05:32:23;;;;;;;;;;;;;;;-144.99;100.00;52521.47;5067355;28;20108;-66
2022/11/12 05:34:49;;;;;;;;;;;;;;;-144.99;100.00;52488.84;5066850;28;20023;-66
2022/11/12 05:37:16;;;;;;;;;;;;;;;-144.99;100.00;52484.78;5067262;28;20215;-65
2022/11/12 05:39:42;;;;;;;;;;;;;;;-144.99;100.00;52460.31;5068947;28;19996;-69
2022/11/12 05:42:10;;;;;;;;;;;;;;;-144.99;100.00;52523.50;5066944;28;20048;-70
2022/11/12 05:44:37;;;;;;;;;;;;;;;-144.99;100.00;52509.25;5068190;28;20012;-71
2022/11/12 05:47:03;;;;;;;;;;;;;;;-144.99;100.00;52480.72;5068317;28;20391;-69
2022/11/12 05:49:30;;;;;;;;;;;;;;;-144.99;100.00;52509.25;5067917;28;20022;-67
2022/11/12 05:51:56;;;;;;;;;;;;;;;-144.99;100.00;52558.16;5061208;28;20437;-67
2022/11/12 05:54:23;;;;;;;;;;;;;;;-144.99;100.00;52497.00;5065838;28;19992;-67
2022/11/12 05:56:51;;;;;;;;;;;;;;;-144.99;100.00;52503.13;5060951;28;19951;-66
2022/11/12 05:59:19;;;;;;;;;;;;;;;-144.99;100.00;52497.00;5056561;28;19952;-65
2022/11/12 06:01:45;;;;;;;;;;;;;;;-144.99;100.00;52517.41;5060100;28;19983;-64
2022/11/12 06:04:12;;;;;;;;;;;;;;;-144.99;100.00;52505.16;5065878;28;20037;-65
2022/11/12 06:06:39;;;;;;;;;;;;;;;-144.99;100.00;52497.00;5063178;28;19986;-65
2022/11/12 06:09:06;;;;;;;;;;;;;;;-144.99;100.00;52486.81;5066737;28;19974;-73
2022/11/12 06:11:32;;;;;;;;;;;;;;;-144.99;100.00;52505.16;5065998;28;20041;-71
2022/11/12 06:13:59;;;;;;;;;;;;;;;-144.99;100.00;52529.63;5067603;28;20560;-71
2022/11/12 06:16:27;;;;;;;;;;;;;;;-144.99;100.00;52497.00;5066179;28;20046;-71
2022/11/12 06:18:54;;;;;;;;;;;;;;;-144.99;100.00;52509.25;5067206;28;20030;-70
2022/11/12 06:21:21;;;;;;;;;;;;;;;-144.99;100.00;52521.47;5065208;28;20049;-71
2022/11/12 06:23:50;;;;;;;;;;;;;;;-144.99;100.00;52505.16;5059160;28;20484;-69
2022/11/12 06:26:16;;;;;;;;;;;;;;;-144.99;100.00;52525.56;5063700;28;19939;-68
2022/11/12 06:28:43;;;;;;;;;;;;;;;-144.99;100.00;52511.28;5061858;28;20035;-68
2022/11/12 06:31:09;;;;;;;;;;;;;;;-144.99;100.00;52517.41;5060035;28;20029;-68
2022/11/12 06:33:37;;;;;;;;;;;;;;;-144.99;100.00;52501.09;5056901;28;19935;-68
2022/11/12 06:36:05;;;;;;;;;;;;;;;-144.99;100.00;52550.00;5059774;28;20115;-69
2022/11/12 06:38:31;;;;;;;;;;;;;;;-144.99;100.00;52501.09;5064311;28;19972;-69
2022/11/12 06:40:58;;;;;;;;;;;;;;;-144.99;100.00;52492.94;5061908;28;20411;-69
2022/11/12 06:43:24;;;;;;;;;;;;;;;-144.99;100.00;52509.25;5061793;28;19946;-68
2022/11/12 06:45:51;;;;;;;;;;;;;;;-144.99;100.00;52533.69;5055555;28;19979;-69
2022/11/12 06:48:17;;;;;;;;;;;;;;;-144.99;100.00;52484.78;5057679;28;19945;-69
2022/11/12 06:50:46;;;;;;;;;;;;;;;-144.99;100.00;52507.19;5061037;28;20316;-68
2022/11/12 06:53:12;;;;;;;;;;;;;;;-144.99;100.00;52517.41;5059911;28;20005;-68
2022/11/12 06:55:38;;;;;;;;;;;;;;;-144.99;100.00;52501.09;5059321;28;20066;-69
2022/11/12 06:58:05;;;;;;;;;;;;;;;-144.99;100.00;52505.16;5064331;28;20064;-69
2022/11/12 07:00:31;;;;;;;;;;;;;;;-144.99;100.00;52505.16;5063353;28;20027;-67
2022/11/12 07:02:58;;;;;;;;;;;;;;;-144.99;100.00;52529.63;5066557;28;20051;-66
2022/11/12 07:05:24;;;;;;;;;;;;;;;-144.99;100.00;52509.25;5058088;28;20040;-66
2022/11/12 07:07:54;;;;;;;;;;;;;;;-144.99;100.00;52525.56;5062365;28;20005;-70
2022/11/12 07:10:20;;;;;;;;;;;;;;;-144.99;100.00;52450.13;5058417;28;20131;-71
2022/11/12 07:12:47;;;;;;;;;;;;;;;-144.99;100.00;52494.97;5064210;28;19985;-70
2022/11/12 07:15:13;;;;;;;;;;;;;;;-144.99;100.00;52468.47;5060936;28;19940;-68
2022/11/12 07:17:39;;;;;;;;;;;;;;;-144.99;100.00;52511.28;5066791;28;20024;-67
2022/11/12 07:20:07;;;;;;;;;;;;;;;-144.99;100.00;52497.00;5062493;28;20064;-72
2022/11/12 07:22:34;;;;;;;;;;;;;;;-144.99;100.00;52501.09;5059904;28;20061;-72
2022/11/12 07:25:01;;;;;;;;;;;;;;;-144.99;100.00;52444.03;5061713;28;20081;-71
2022/11/12 07:27:29;;;;;;;;;;;;;;;-144.99;100.00;52484.78;5058345;28;19974;-71
2022/11/12 07:29:55;;;;;;;;;;;;;;;-144.99;100.00;52507.19;5061946;28;20062;-70
2022/11/12 07:32:22;;;;;;;;;;;;;;;-144.99;100.00;52460.31;5052285;28;19955;-70
2022/11/12 07:34:49;;;;;;;;;;;;;;;-144.99;100.00;52476.63;5056630;28;20281;-69
2022/11/12 07:37:15;;;;;;;;;;;;;;;-144.99;100.00;52484.78;5062778;28;19982;-69
2022/11/12 07:39:42;;;;;;;;;;;;;;;-144.99;100.00;52439.94;5065866;28;19939;-69
2022/11/12 07:42:10;;;;;;;;;;;;;;;-144.99;100.00;52431.78;5057911;28;20410;-69
2022/11/12 07:44:36;;;;;;;;;;;;;;;-144.99;100.00;52488.84;5058758;28;19949;-68
2022/11/12 07:47:03;;;;;;;;;;;;;;;-144.99;100.00;52464.41;5065699;28;19984;-69
2022/11/12 07:49:29;;;;;;;;;;;;;;;-144.99;100.00;52497.00;5065153;28;19997;-68
2022/11/12 07:51:56;;;;;;;;;;;;;;;-144.99;100.00;52476.63;5062400;28;20327;-69
2022/11/12 07:54:22;;;;;;;;;;;;;;;-144.99;99.10;52480.72;5061520;28;21262;-70
2022/11/12 07:56:48;;;;;;;;;;;;;;;-144.99;97.41;52446.06;5064152;28;20039;-70
2022/11/12 07:59:16;;;;;;;;;;;;;;;-144.99;97.30;52501.09;5057308;28;19989;-69
2022/11/12 08:01:44;;;;;;;;;;;;;;;-144.99;96.85;52484.78;5064562;28;20001;-69
2022/11/12 08:04:11;;;;;;;;;;;;;;;-144.99;93.38;52448.09;5059193;28;19939;-76
2022/11/12 08:06:38;;;;;;;;;;;;;;;-144.99;92.12;52433.81;5060124;28;20030;-72
2022/11/12 08:09:05;;;;;;;;;;;;;;;-144.99;91.78;52472.56;5061054;28;19991;-69
2022/11/12 08:11:32;;;;;;;;;;;;;;;-144.99;91.25;52480.72;5058643;28;20026;-69
2022/11/12 08:13:58;;;;;;;;;;;;;;;-144.99;89.21;52472.56;5066828;28;19997;-69
2022/11/12 08:16:26;;;;;;;;;;;;;;;-144.99;88.11;52472.56;5059142;28;20378;-69
2022/11/12 08:18:53;;;;;;;;;;;;;;;-144.99;88.56;52462.34;5062294;28;19966;-69
2022/11/12 08:21:19;;;;;;;;;;;;;;;-144.99;88.99;52492.94;5057340;28;20409;-69
2022/11/12 08:23:47;;;;;;;;;;;;;;;-144.99;81.68;52456.25;5060273;28;20029;-69
2022/11/12 08:26:14;;;;;;;;;;;;;;;-144.99;82.27;52468.47;5059904;28;19941;-70
2022/11/12 08:28:41;;;;;;;;;;;;;;;-144.99;81.01;52435.88;5059809;28;20396;-70
2022/11/12 08:31:08;;;;;;;;;;;;;;;-144.99;80.29;52448.09;5059834;28;19997;-70
2022/11/12 08:33:36;;;;;;;;;;;;;;;-144.99;81.43;52446.06;5057521;28;19979;-70
2022/11/12 08:36:03;;;;;;;;;;;;;;;-144.99;81.77;52444.03;5059518;28;20069;-70
2022/11/12 08:38:30;;;;;;;;;;;;;;;-144.99;79.59;52464.41;5057082;28;19938;-70
2022/11/12 08:40:59;;;;;;;;;;;;;;;-144.99;77.74;52415.47;5060185;28;20210;-71
2022/11/12 08:43:26;;;;;;;;;;;;;;;-144.99;77.66;52431.78;5056599;28;19969;-71
2022/11/12 08:45:52;;;;;;;;;;;;;;;-144.99;73.31;52407.31;5062655;28;20046;-71
2022/11/12 08:48:19;;;;;;;;;;;;;;;-144.99;73.88;52395.09;5071460;28;20311;-70
2022/11/12 08:50:47;;;;;;;;;;;;;;;-144.99;74.11;52374.72;5068133;28;20019;-71
2022/11/12 08:53:13;;;;;;;;;;;;;;;-144.99;69.68;52395.09;5069348;28;19956;-70
2022/11/12 08:55:40;;;;;;;;;;;;;;;-144.99;71.50;52386.94;5070853;28;19984;-69
2022/11/12 08:58:06;;;;;;;;;;;;;;;-144.99;68.80;52413.44;5055774;28;19996;-69
2022/11/12 09:00:34;;;;;;;;;;;;;;;-144.99;66.49;52411.41;5056768;28;20052;-69
2022/11/12 09:03:01;;;;;;;;;;;;;;;-144.99;66.91;52399.19;5062218;28;20045;-69
2022/11/12 09:05:28;;;;;;;;;;;;;;;-144.99;65.79;52409.38;5068781;28;20004;-70
2022/11/12 09:07:59;;;;;;;;;;;;;;;-144.99;65.62;52366.56;5070244;28;19998;-70
2022/11/12 09:10:25;;;;;;;;;;;;;;;-144.99;62.34;52368.59;5070601;28;20022;-70
2022/11/12 09:12:52;;;;;;;;;;;;;;;-144.99;60.44;52327.84;5063015;28;20017;-72
2022/11/12 09:15:18;;;;;;;;;;;;;;;-144.99;57.87;52362.50;5069033;28;19977;-73
2022/11/12 09:17:45;;;;;;;;;;;;;;;-144.99;57.69;52391.03;5069637;28;20002;-73
2022/11/12 09:20:11;;;;;;;;;;;;;;;-144.99;57.83;52374.72;5067145;28;20456;-73
2022/11/12 09:22:38;;;;;;;;;;;;;;;-144.99;58.64;52399.19;5063831;28;20005;-73
2022/11/12 09:25:06;;;;;;;;;;;;;;;-144.99;57.19;52327.84;5069540;28;19997;-73
2022/11/12 09:27:32;;;;;;;;;;;;;;;-144.99;55.96;52358.41;5060954;28;20497;-73
2022/11/12 09:29:59;;;;;;;;;;;;;;;-144.99;54.71;52362.50;5058449;28;20002;-74
2022/11/12 09:32:25;;;;;;;;;;;;;;;-144.99;53.92;52327.84;5065789;28;19988;-73
2022/11/12 09:34:52;;;;;;;;;;;;;;;-144.99;54.21;52399.19;5064211;28;20401;-73
2022/11/12 09:37:18;;;;;;;;;;;;;;;-144.99;54.47;52309.50;5062762;28;19979;-74
2022/11/12 09:39:45;;;;;;;;;;;;;;;-144.99;52.55;52313.56;5058743;28;20026;-74
2022/11/12 09:42:15;;;;;;;;;;;;;;;-144.99;51.32;52297.25;5064526;28;20051;-74
2022/11/12 09:44:43;;;;;;;;;;;;;;;-144.99;50.38;52283.00;5067934;28;19940;-74
2022/11/12 09:47:14;;;;;;;;;;;;;;;-144.99;49.91;52301.34;5069749;28;20033;-74
2022/11/12 09:49:44;;;;;;;;;;;;;;;-144.99;49.11;52256.50;5062285;28;19936;-74
2022/11/12 09:52:14;;;;;;;;;;;;;;;-144.99;47.46;52240.19;5066890;28;20003;-74
2022/11/12 09:54:41;;;;;;;;;;;;;;;-144.99;45.23;52240.19;5061241;28;20155;-74
2022/11/12 09:57:10;;;;;;;;;;;;;;;-144.99;43.85;52223.88;5068384;28;20399;-74
2022/11/12 09:59:40;;;;;;;;;;;;;;;-144.99;43.37;52248.34;5066621;28;20504;-74
2022/11/12 10:02:15;;;;;;;;;;;;;;;-144.99;42.44;52215.75;5066001;28;19958;-73
2022/11/12 10:04:49;;;;;;;;;;;;;;;-144.99;41.26;52183.13;5061040;28;19944;-74
2022/11/12 10:07:22;;;;;;;;;;;;;;;-144.99;40.57;52126.06;5066809;28;19983;-75
2022/11/12 10:09:57;;;;;;;;;;;;;;;-144.99;39.99;52150.53;5060578;28;20068;-76
2022/11/12 10:12:34;;;;;;;;;;;;;;;-144.99;39.08;52154.59;5064920;28;20762;-76
2022/11/12 10:18:07;;;;;;;;;;;;;;;-144.99;38.73;52138.28;5058997;28;20439;-78
2022/11/12 10:20:37;;;;;;;;;;;;;;;-144.99;38.51;52097.53;5064279;28;20027;-76
2022/11/12 10:23:11;;;;;;;;;;;;;;;-144.99;37.98;52083.25;5060479;28;20364;-75
2022/11/12 10:25:38;;;;;;;;;;;;;;;-144.99;37.21;52113.84;5059224;28;19986;-76
2022/11/12 10:28:13;;;;;;;;;;;;;;;-144.99;36.36;52077.16;5064726;28;19996;-76
2022/11/12 10:30:40;;;;;;;;;;;;;;;-144.99;36.14;52077.16;5060462;28;20017;-76
2022/11/12 10:33:11;;;;;;;;;;;;;;;-144.99;35.71;52056.78;5063268;28;20420;-77
2022/11/12 10:35:38;;;;;;;;;;;;;;;-144.99;35.46;52028.22;5064614;28;20015;-76
2022/11/12 10:38:06;;;;;;;;;;;;;;;-144.99;35.20;52069.00;5066717;28;20597;-77
2022/11/12 10:40:34;;;;;;;;;;;;;;;-144.99;34.57;52040.47;5067083;28;20536;-77
2022/11/12 10:43:02;;;;;;;;;;;;;;;-144.99;33.21;52003.78;5072059;28;19955;-77
2022/11/12 10:45:28;;;;;;;;;;;;;;;-144.99;33.13;52016.00;5079099;28;19936;-77
2022/11/12 10:47:55;;;;;;;;;;;;;;;-144.99;33.70;52024.16;5078477;28;19939;-77
2022/11/12 10:50:25;;;;;;;;;;;;;;;-144.99;33.78;52060.84;5082580;28;19982;-77
2022/11/12 10:52:55;;;;;;;;;;;;;;;-144.99;33.71;52077.16;5080600;28;19926;-78
2022/11/12 10:55:23;;;;;;;;;;;;;;;-144.99;33.66;52046.56;5084966;28;19934;-79
2022/11/12 10:58:03;;;;;;;;;;;;;;;-144.99;32.98;52050.66;5064246;28;19963;-77
2022/11/12 11:00:29;;;;;;;;;;;;;;;-144.99;33.56;52048.63;5077055;28;19957;-77
2022/11/12 11:02:56;;;;;;;;;;;;;;;-144.99;33.14;52060.84;5084622;28;19932;-77
2022/11/12 11:05:32;;;;;;;;;;;;;;;-144.99;32.96;52030.28;5085045;28;19950;-77
2022/11/12 11:08:00;;;;;;;;;;;;;;;-144.99;33.07;52052.69;5083091;28;20364;-76
2022/11/12 11:13:18;;;;;;;;;;;;;;;-144.99;33.55;52142.38;5075063;28;19952;-68
2022/11/12 11:15:57;;;;;;;;;;;;;;;-144.99;34.65;52201.47;5088649;28;19978;-68
2022/11/12 11:18:24;;;;;;;;;;;;;;;-144.99;35.61;52248.34;5090289;28;19951;-68
2022/11/12 11:20:56;;;;;;;;;;;;;;;-144.99;36.62;52268.72;5096735;28;20013;-68
2022/11/12 11:23:26;;;;;;;;;;;;;;;-144.99;37.07;52362.50;5069273;28;20040;-69
2022/11/12 11:25:54;;;;;;;;;;;;;;;-144.99;38.33;52342.09;5068669;28;19996;-68
2022/11/12 11:28:28;;;;;;;;;;;;;;;-144.99;39.01;52329.88;5066622;28;20371;-68
2022/11/12 11:31:00;;;;;;;;;;;;;;;-144.99;39.66;52378.78;5069764;28;20365;-68
2022/11/12 11:33:32;;;;;;;;;;;;;;;-144.99;40.74;52391.03;5087415;28;20349;-69
2022/11/12 11:36:06;;;;;;;;;;;;;;;-144.99;41.47;52370.63;5087703;28;20414;-68
2022/11/12 11:38:40;;;;;;;;;;;;;;;-144.99;41.22;52354.34;5088438;28;19992;-68
2022/11/12 11:41:17;;;;;;;;;;;;;;;-144.99;41.40;52362.50;5088063;28;19965;-69
2022/11/12 11:43:50;;;;;;;;;;;;;;;-144.99;41.52;52350.25;5087856;28;20015;-69
2022/11/12 11:46:27;;;;;;;;;;;;;;;-144.99;41.43;52301.34;5077567;28;19940;-68
2022/11/12 11:49:01;;;;;;;;;;;;;;;-144.99;40.85;52276.88;5067895;28;19942;-68
2022/11/12 11:51:36;;;;;;;;;;;;;;;-144.99;40.07;52232.03;5067080;28;20033;-67
2022/11/12 11:54:09;;;;;;;;;;;;;;;-144.99;38.84;52158.66;5068000;28;19991;-69
2022/11/12 11:56:40;;;;;;;;;;;;;;;-144.99;37.75;52138.28;5068460;28;19963;-68
2022/11/12 11:59:14;;;;;;;;;;;;;;;-144.99;35.82;52077.16;5067703;28;19978;-68
2022/11/12 12:01:48;;;;;;;;;;;;;;;-144.99;34.71;52117.91;5063216;28;20022;-69
2022/11/12 12:04:25;;;;;;;;;;;;;;;-144.99;34.67;52244.28;5078658;28;20389;-69
2022/11/12 12:07:08;;;;;;;;;;;;;;;-144.99;36.41;52244.28;5089778;28;19947;-69
2022/11/12 12:09:38;;;;;;;;;;;;;;;-144.99;37.56;52280.97;5068611;28;19999;-68
2022/11/12 12:12:11;;;;;;;;;;;;;;;-144.99;38.52;52305.41;5066751;28;20092;-68
2022/11/12 12:14:44;;;;;;;;;;;;;;;-144.99;39.81;52391.03;5066987;28;19924;-70
2022/11/12 12:17:18;;;;;;;;;;;;;;;-144.99;40.95;52370.63;5067372;28;19945;-68
2022/11/12 12:19:51;;;;;;;;;;;;;;;-144.99;42.18;52419.56;5070899;28;19924;-68
2022/11/12 12:22:21;;;;;;;;;;;;;;;-144.99;43.34;52444.03;5089420;28;20058;-68
2022/11/12 12:24:49;;;;;;;;;;;;;;;-144.99;43.84;52456.25;5092023;28;19952;-68
2022/11/12 12:27:19;;;;;;;;;;;;;;;-144.99;44.85;52417.53;5091354;28;19996;-67
2022/11/12 12:29:48;;;;;;;;;;;;;;;-144.99;46.01;52468.47;5068807;28;19977;-67
2022/11/12 12:32:19;;;;;;;;;;;;;;;-144.99;46.92;52480.72;5070487;28;20020;-67
2022/11/12 12:34:47;;;;;;;;;;;;;;;-144.99;47.81;52460.31;5070183;28;19944;-67
2022/11/12 12:37:23;;;;;;;;;;;;;;;-144.99;48.13;52435.88;5071135;28;20429;-67
2022/11/12 12:39:54;;;;;;;;;;;;;;;-144.99;49.11;52501.09;5071456;28;20461;-66
2022/11/12 12:42:24;;;;;;;;;;;;;;;-144.99;49.76;52444.03;5070770;28;20010;-67
2022/11/12 12:45:03;;;;;;;;;;;;;;;-144.99;50.93;52488.84;5072594;28;19942;-67
2022/11/12 12:47:32;;;;;;;;;;;;;;;-144.99;51.36;52486.81;5070315;28;20013;-67
2022/11/12 12:50:00;;;;;;;;;;;;;;;-144.99;51.84;52452.16;5066617;28;20389;-67
2022/11/12 12:52:26;;;;;;;;;;;;;;;-144.99;52.48;52448.09;5070152;28;20038;-66